Time;durP1;ratioP1;P1;durP2;ratioP2;P2;SDS_P1;SDS_P2;PMS_P1;PMS_P2;Temp;Humidity;BMP_temperature;BMP_pressure;BME280_temperature;BME280_humidity;BME280_pressure;Samples;Min_cycle;Max_cycle;Signal;HPM_P1;HPM_P2
2024/01/30 00:00:06;;;;;;;19.53;12.23;;;;;;;;;;5069723;28;20180;-70
2024/01/30 00:02:32;;;;;;;19.57;12.90;;;;;;;;;;5069816;28;20655;-69
2024/01/30 00:04:57;;;;;;;19.27;13.13;;;;;;;;;;5067245;28;20277;-69
2024/01/30 00:07:22;;;;;;;19.17;12.37;;;;;;;;;;5058401;28;20234;-68
2024/01/30 00:09:48;;;;;;;24.03;12.03;;;;;;;;;;5065214;28;20213;-69
2024/01/30 00:12:13;;;;;;;20.40;12.93;;;;;;;;;;5062600;28;20205;-68
2024/01/30 00:14:38;;;;;;;22.13;12.10;;;;;;;;;;5057734;28;20619;-69
2024/01/30 00:17:04;;;;;;;15.10;10.93;;;;;;;;;;5056844;28;20606;-68
2024/01/30 00:19:29;;;;;;;19.67;12.03;;;;;;;;;;5024218;28;20188;-69
2024/01/30 00:21:54;;;;;;;18.90;11.83;;;;;;;;;;5045056;28;20204;-68
2024/01/30 00:24:19;;;;;;;19.00;10.83;;;;;;;;;;5058826;28;20214;-69
2024/01/30 00:26:45;;;;;;;16.13;11.30;;;;;;;;;;5057112;28;20181;-66
2024/01/30 00:29:10;;;;;;;20.23;12.57;;;;;;;;;;5067397;28;20267;-68
2024/01/30 00:31:35;;;;;;;17.00;11.07;;;;;;;;;;5069822;28;20253;-68
2024/01/30 00:34:01;;;;;;;15.90;11.33;;;;;;;;;;5069265;28;20572;-68
2024/01/30 00:36:26;;;;;;;17.30;10.47;;;;;;;;;;5068807;28;20675;-68
2024/01/30 00:38:51;;;;;;;19.80;12.10;;;;;;;;;;5051429;28;20256;-69
2024/01/30 00:41:19;;;;;;;16.10;11.73;;;;;;;;;;5069271;28;20663;-69
2024/01/30 00:43:44;;;;;;;17.20;11.23;;;;;;;;;;5068594;28;20185;-68
2024/01/30 00:46:10;;;;;;;16.77;11.07;;;;;;;;;;5057286;28;20538;-69
2024/01/30 00:48:35;;;;;;;17.73;10.53;;;;;;;;;;5067288;28;20212;-67
2024/01/30 00:51:00;;;;;;;17.33;11.53;;;;;;;;;;5067498;28;20197;-69
2024/01/30 00:53:26;;;;;;;17.90;10.57;;;;;;;;;;5068217;28;20211;-68
2024/01/30 00:55:51;;;;;;;16.87;10.57;;;;;;;;;;5062208;28;20193;-68
2024/01/30 00:58:16;;;;;;;15.67;11.17;;;;;;;;;;5065881;28;20199;-69
2024/01/30 01:00:41;;;;;;;16.53;10.20;;;;;;;;;;5068468;28;20189;-68
2024/01/30 01:03:06;;;;;;;18.10;11.40;;;;;;;;;;5059902;28;20239;-69
2024/01/30 01:05:31;;;;;;;15.03;10.93;;;;;;;;;;5065661;28;20255;-68
2024/01/30 01:07:57;;;;;;;17.37;11.57;;;;;;;;;;5065552;28;20619;-69
2024/01/30 01:10:22;;;;;;;18.47;11.97;;;;;;;;;;5066556;28;20182;-69
2024/01/30 01:12:48;;;;;;;24.30;11.00;;;;;;;;;;5067142;28;20209;-68
2024/01/30 01:15:13;;;;;;;24.10;11.37;;;;;;;;;;5065236;28;20216;-69
2024/01/30 01:17:39;;;;;;;16.33;11.20;;;;;;;;;;5067152;28;20269;-69
2024/01/30 01:20:07;;;;;;;21.00;11.93;;;;;;;;;;5061043;28;20169;-69
2024/01/30 01:22:33;;;;;;;19.70;11.70;;;;;;;;;;5068746;28;20687;-69
2024/01/30 01:24:59;;;;;;;19.20;11.67;;;;;;;;;;5068914;28;20204;-67
2024/01/30 01:27:24;;;;;;;18.83;10.60;;;;;;;;;;5069422;28;20173;-68
2024/01/30 01:29:50;;;;;;;18.43;11.27;;;;;;;;;;5052924;28;20185;-69
2024/01/30 01:32:15;;;;;;;19.57;11.40;;;;;;;;;;5071906;28;20193;-69
2024/01/30 01:34:40;;;;;;;14.50;10.20;;;;;;;;;;5070144;28;20201;-68
2024/01/30 01:37:05;;;;;;;17.53;11.67;;;;;;;;;;5069782;28;20169;-69
2024/01/30 01:39:31;;;;;;;18.33;11.53;;;;;;;;;;5066998;28;20687;-69
2024/01/30 01:41:56;;;;;;;18.27;11.37;;;;;;;;;;5053846;28;20184;-69
2024/01/30 01:44:21;;;;;;;14.90;10.17;;;;;;;;;;5066724;28;20586;-68
2024/01/30 01:46:47;;;;;;;16.97;10.93;;;;;;;;;;5068272;28;20192;-69
2024/01/30 01:49:13;;;;;;;21.50;11.13;;;;;;;;;;5051963;28;20267;-69
2024/01/30 01:51:40;;;;;;;15.97;10.80;;;;;;;;;;5071216;28;20215;-68
2024/01/30 01:54:06;;;;;;;16.67;11.20;;;;;;;;;;5066755;28;20580;-68
2024/01/30 01:56:32;;;;;;;13.50;9.83;;;;;;;;;;5070748;28;20184;-69
2024/01/30 01:59:00;;;;;;;17.70;10.77;;;;;;;;;;5066215;28;20187;-69
2024/01/30 02:01:26;;;;;;;16.77;10.93;;;;;;;;;;5069948;28;20175;-69
2024/01/30 02:03:51;;;;;;;19.87;11.47;;;;;;;;;;5066154;28;20173;-69
2024/01/30 02:08:43;;;;;;;21.70;11.10;;;;;;;;;;5044744;28;20226;-70
2024/01/30 02:11:10;;;;;;;15.17;10.40;;;;;;;;;;5046926;28;20667;-70
2024/01/30 02:13:35;;;;;;;18.83;11.83;;;;;;;;;;5048303;28;20205;-69
2024/01/30 02:16:01;;;;;;;20.17;11.73;;;;;;;;;;5046591;28;20676;-70
2024/01/30 02:18:26;;;;;;;17.67;11.43;;;;;;;;;;5042741;28;20182;-70
2024/01/30 02:20:53;;;;;;;19.07;10.53;;;;;;;;;;5045746;28;20252;-69
2024/01/30 02:23:19;;;;;;;14.40;10.13;;;;;;;;;;5048412;28;20591;-70
2024/01/30 02:25:45;;;;;;;18.43;12.07;;;;;;;;;;5049881;28;20693;-69
2024/01/30 02:28:11;;;;;;;17.50;10.33;;;;;;;;;;5046259;28;20239;-70
2024/01/30 02:30:37;;;;;;;17.77;11.47;;;;;;;;;;5049791;28;20209;-69
2024/01/30 02:33:02;;;;;;;17.20;10.53;;;;;;;;;;5046608;28;20236;-69
2024/01/30 02:35:27;;;;;;;17.33;10.93;;;;;;;;;;5048940;28;20626;-70
2024/01/30 02:37:52;;;;;;;15.70;10.00;;;;;;;;;;5049784;28;20174;-69
2024/01/30 02:40:17;;;;;;;16.90;10.27;;;;;;;;;;5039031;28;20226;-69
2024/01/30 02:42:43;;;;;;;16.40;9.87;;;;;;;;;;5048405;28;20256;-69
2024/01/30 02:45:09;;;;;;;16.17;10.77;;;;;;;;;;5029000;28;20210;-69
2024/01/30 02:47:34;;;;;;;15.67;11.10;;;;;;;;;;5051590;28;20174;-69
2024/01/30 02:49:59;;;;;;;13.67;9.73;;;;;;;;;;5048749;28;20213;-70
2024/01/30 02:52:25;;;;;;;17.20;10.30;;;;;;;;;;5031017;28;20246;-70
2024/01/30 02:54:50;;;;;;;14.43;9.93;;;;;;;;;;5047729;28;20193;-70
2024/01/30 02:57:15;;;;;;;15.27;10.43;;;;;;;;;;5047879;28;20170;-70
2024/01/30 02:59:41;;;;;;;15.17;10.30;;;;;;;;;;5038975;28;20276;-70
2024/01/30 03:02:07;;;;;;;15.27;10.90;;;;;;;;;;5048679;28;20766;-70
2024/01/30 03:04:32;;;;;;;16.47;11.27;;;;;;;;;;5047821;28;20264;-70
2024/01/30 03:06:57;;;;;;;18.43;10.80;;;;;;;;;;5050403;28;20287;-70
2024/01/30 03:09:23;;;;;;;17.10;10.93;;;;;;;;;;5029890;28;20230;-71
2024/01/30 03:11:48;;;;;;;17.03;11.17;;;;;;;;;;5050354;28;20209;-70
2024/01/30 03:14:13;;;;;;;17.43;10.93;;;;;;;;;;5047807;28;20233;-69
2024/01/30 03:16:39;;;;;;;16.83;10.47;;;;;;;;;;5025887;28;20170;-69
2024/01/30 03:19:06;;;;;;;20.60;11.80;;;;;;;;;;5023865;28;20662;-69
2024/01/30 03:21:31;;;;;;;17.77;11.20;;;;;;;;;;5045214;28;21268;-69
2024/01/30 03:23:56;;;;;;;15.40;10.00;;;;;;;;;;5026754;28;20178;-68
2024/01/30 03:26:21;;;;;;;15.40;10.50;;;;;;;;;;5049353;28;20178;-70
2024/01/30 03:28:46;;;;;;;14.60;10.70;;;;;;;;;;5048105;28;20257;-69
2024/01/30 03:31:14;;;;;;;17.70;12.10;;;;;;;;;;5026473;28;20202;-70
2024/01/30 03:33:39;;;;;;;15.80;10.50;;;;;;;;;;5049050;28;20636;-70
2024/01/30 03:36:05;;;;;;;15.73;10.37;;;;;;;;;;5047945;28;20224;-71
2024/01/30 03:38:32;;;;;;;15.97;11.03;;;;;;;;;;5049439;28;20664;-70
2024/01/30 03:40:57;;;;;;;19.43;10.73;;;;;;;;;;5048372;28;20178;-69
2024/01/30 03:43:22;;;;;;;20.00;10.93;;;;;;;;;;5039377;28;20188;-70
2024/01/30 03:45:47;;;;;;;17.43;11.20;;;;;;;;;;5044943;28;20255;-70
2024/01/30 03:48:13;;;;;;;17.73;12.40;;;;;;;;;;5050033;28;20212;-69
2024/01/30 03:50:38;;;;;;;20.27;11.53;;;;;;;;;;5047425;28;20268;-69
2024/01/30 03:53:03;;;;;;;16.93;10.87;;;;;;;;;;5048712;28;20209;-69
2024/01/30 03:55:29;;;;;;;17.60;10.80;;;;;;;;;;5033002;28;20193;-71
2024/01/30 03:57:54;;;;;;;20.07;10.73;;;;;;;;;;5046902;28;20178;-70
2024/01/30 04:00:19;;;;;;;21.30;11.30;;;;;;;;;;5028563;28;20182;-69
2024/01/30 04:02:44;;;;;;;15.67;11.10;;;;;;;;;;5047996;28;20177;-69
2024/01/30 04:05:10;;;;;;;18.80;10.20;;;;;;;;;;5048791;28;20262;-69
2024/01/30 04:07:35;;;;;;;13.20;9.00;;;;;;;;;;5031268;28;20196;-70
2024/01/30 04:10:00;;;;;;;13.80;9.30;;;;;;;;;;5049420;28;20181;-70
2024/01/30 04:12:25;;;;;;;15.73;9.50;;;;;;;;;;5049539;28;20779;-68
2024/01/30 04:14:50;;;;;;;17.80;10.00;;;;;;;;;;5049617;28;20201;-69
2024/01/30 04:17:16;;;;;;;16.20;9.50;;;;;;;;;;5041133;28;20602;-70
2024/01/30 04:19:41;;;;;;;13.30;9.60;;;;;;;;;;5025449;28;20276;-70
2024/01/30 04:22:06;;;;;;;12.87;8.77;;;;;;;;;;5040736;28;20188;-71
2024/01/30 04:24:31;;;;;;;13.70;9.17;;;;;;;;;;5042853;28;20201;-68
2024/01/30 04:26:57;;;;;;;16.70;10.20;;;;;;;;;;5041364;28;20186;-69
2024/01/30 04:29:22;;;;;;;16.37;10.27;;;;;;;;;;5045860;28;20176;-69
2024/01/30 04:31:47;;;;;;;14.60;9.20;;;;;;;;;;5045383;28;20288;-71
2024/01/30 04:34:12;;;;;;;15.00;9.50;;;;;;;;;;5045207;28;20255;-68
2024/01/30 04:36:38;;;;;;;14.77;9.83;;;;;;;;;;5046507;28;20174;-69
2024/01/30 04:39:03;;;;;;;13.10;8.70;;;;;;;;;;5041646;28;20526;-69
2024/01/30 04:41:32;;;;;;;11.43;8.30;;;;;;;;;;5043447;28;20606;-69
2024/01/30 04:43:57;;;;;;;11.70;8.27;;;;;;;;;;5041014;28;20211;-70
2024/01/30 04:46:22;;;;;;;13.43;9.03;;;;;;;;;;5042929;28;20701;-70
2024/01/30 04:48:47;;;;;;;15.60;9.60;;;;;;;;;;5048548;28;20900;-70
2024/01/30 04:51:13;;;;;;;11.93;8.50;;;;;;;;;;5044976;28;20178;-69
2024/01/30 04:53:39;;;;;;;17.33;9.03;;;;;;;;;;5049059;28;20271;-70
2024/01/30 04:56:05;;;;;;;12.97;8.97;;;;;;;;;;5037579;28;20202;-70
2024/01/30 04:58:30;;;;;;;13.67;8.73;;;;;;;;;;5039820;28;20518;-69
2024/01/30 05:00:55;;;;;;;16.57;8.73;;;;;;;;;;5051873;28;20197;-69
2024/01/30 05:03:22;;;;;;;13.37;8.20;;;;;;;;;;5050524;28;20189;-69
2024/01/30 05:05:48;;;;;;;17.90;8.80;;;;;;;;;;5032511;28;20201;-68
2024/01/30 05:08:13;;;;;;;14.40;8.40;;;;;;;;;;5046944;28;20546;-69
2024/01/30 05:10:38;;;;;;;15.80;8.63;;;;;;;;;;5052215;28;20311;-69
2024/01/30 05:13:03;;;;;;;13.87;8.13;;;;;;;;;;5048183;28;20206;-69
2024/01/30 05:15:29;;;;;;;11.60;7.93;;;;;;;;;;5019048;28;20287;-70
2024/01/30 05:17:54;;;;;;;15.80;8.57;;;;;;;;;;5044963;28;20169;-70
2024/01/30 05:20:20;;;;;;;12.07;8.30;;;;;;;;;;5051059;28;20180;-70
2024/01/30 05:22:45;;;;;;;15.07;8.83;;;;;;;;;;5052224;28;20197;-70
2024/01/30 05:25:11;;;;;;;13.57;7.97;;;;;;;;;;5047092;28;20201;-69
2024/01/30 05:27:36;;;;;;;16.53;8.43;;;;;;;;;;5046757;28;20189;-70
2024/01/30 05:30:01;;;;;;;11.53;7.63;;;;;;;;;;5042584;28;20213;-70
2024/01/30 05:32:26;;;;;;;11.23;8.30;;;;;;;;;;5049838;28;20229;-70
2024/01/30 05:34:52;;;;;;;10.93;7.87;;;;;;;;;;5043809;28;20772;-70
2024/01/30 05:37:17;;;;;;;13.33;8.47;;;;;;;;;;5047484;28;20228;-69
2024/01/30 05:39:43;;;;;;;11.17;7.53;;;;;;;;;;5040357;28;20179;-69
2024/01/30 05:42:08;;;;;;;11.90;7.27;;;;;;;;;;5046665;28;20657;-69
2024/01/30 05:44:33;;;;;;;13.20;7.40;;;;;;;;;;5031322;28;20244;-69
2024/01/30 05:46:58;;;;;;;12.17;7.47;;;;;;;;;;5035408;28;20189;-70
2024/01/30 05:49:23;;;;;;;12.00;7.97;;;;;;;;;;5044056;28;20185;-69
2024/01/30 05:51:49;;;;;;;13.17;7.87;;;;;;;;;;5052602;28;20589;-69
2024/01/30 05:54:14;;;;;;;12.17;7.33;;;;;;;;;;5044151;28;20700;-69
2024/01/30 05:56:39;;;;;;;13.07;8.17;;;;;;;;;;5027321;28;20182;-69
2024/01/30 05:59:04;;;;;;;13.37;7.63;;;;;;;;;;5045794;28;20208;-69
2024/01/30 06:01:30;;;;;;;11.10;7.83;;;;;;;;;;5037806;28;20226;-68
2024/01/30 06:03:55;;;;;;;10.87;7.27;;;;;;;;;;5048450;28;20177;-69
2024/01/30 06:06:20;;;;;;;11.33;7.23;;;;;;;;;;5032625;28;20185;-69
2024/01/30 06:08:45;;;;;;;12.63;7.60;;;;;;;;;;5042095;28;20193;-69
2024/01/30 06:11:11;;;;;;;12.77;8.30;;;;;;;;;;5046455;28;20178;-69
2024/01/30 06:13:37;;;;;;;11.67;7.80;;;;;;;;;;5043957;28;20201;-70
2024/01/30 06:16:02;;;;;;;12.83;8.30;;;;;;;;;;5029947;28;20772;-69
2024/01/30 06:18:29;;;;;;;13.00;7.87;;;;;;;;;;5044651;28;20212;-69
2024/01/30 06:20:54;;;;;;;12.43;7.63;;;;;;;;;;5032509;28;20192;-69
2024/01/30 06:23:19;;;;;;;10.13;7.63;;;;;;;;;;5047614;28;20174;-70
2024/01/30 06:25:44;;;;;;;13.23;8.13;;;;;;;;;;5029698;28;20217;-69
2024/01/30 06:28:10;;;;;;;12.07;8.17;;;;;;;;;;5051856;28;20185;-69
2024/01/30 06:30:35;;;;;;;9.70;7.00;;;;;;;;;;5049096;28;20182;-69
2024/01/30 06:33:00;;;;;;;14.67;7.70;;;;;;;;;;5040907;28;20267;-69
2024/01/30 06:35:25;;;;;;;15.17;8.27;;;;;;;;;;5047147;28;20190;-68
2024/01/30 06:37:51;;;;;;;12.57;7.73;;;;;;;;;;5051797;28;20170;-69
2024/01/30 06:40:16;;;;;;;14.87;8.33;;;;;;;;;;5032408;28;20645;-70
2024/01/30 06:42:41;;;;;;;10.80;7.53;;;;;;;;;;5052145;28;20178;-69
2024/01/30 06:45:07;;;;;;;11.23;6.83;;;;;;;;;;5050766;28;20197;-68
2024/01/30 06:47:33;;;;;;;10.33;6.60;;;;;;;;;;5051411;28;20209;-68
2024/01/30 06:49:58;;;;;;;13.43;7.13;;;;;;;;;;5039291;28;20605;-69
2024/01/30 06:52:23;;;;;;;11.03;7.20;;;;;;;;;;5029087;28;20202;-69
2024/01/30 06:54:48;;;;;;;12.17;7.37;;;;;;;;;;5033536;28;20197;-69
2024/01/30 06:57:14;;;;;;;13.10;7.43;;;;;;;;;;5051169;28;20193;-68
2024/01/30 06:59:43;;;;;;;10.80;7.53;;;;;;;;;;5047642;28;20211;-70
2024/01/30 07:02:09;;;;;;;14.17;8.03;;;;;;;;;;5041589;28;20186;-69
2024/01/30 07:04:35;;;;;;;12.63;7.13;;;;;;;;;;5048450;28;20217;-70
2024/01/30 07:07:00;;;;;;;10.13;6.73;;;;;;;;;;5046166;28;20537;-70
2024/01/30 07:09:25;;;;;;;14.13;8.17;;;;;;;;;;5051345;28;20185;-69
2024/01/30 07:11:51;;;;;;;11.67;6.50;;;;;;;;;;5051552;28;20243;-69
2024/01/30 07:14:17;;;;;;;13.67;7.17;;;;;;;;;;5048297;28;20197;-70
2024/01/30 07:16:42;;;;;;;14.10;7.13;;;;;;;;;;5051144;28;20266;-70
2024/01/30 07:19:09;;;;;;;10.67;7.13;;;;;;;;;;5050800;28;20204;-70
2024/01/30 07:21:34;;;;;;;13.43;7.60;;;;;;;;;;5020340;28;20185;-68
2024/01/30 07:23:59;;;;;;;11.07;7.37;;;;;;;;;;5046563;28;20167;-70
2024/01/30 07:26:24;;;;;;;12.73;7.00;;;;;;;;;;5048736;28;20906;-70
2024/01/30 07:28:50;;;;;;;12.50;7.70;;;;;;;;;;5044315;28;20185;-70
2024/01/30 07:31:16;;;;;;;13.17;6.27;;;;;;;;;;5026694;28;20177;-70
2024/01/30 07:33:41;;;;;;;12.73;6.67;;;;;;;;;;5049389;28;20201;-71
2024/01/30 07:36:06;;;;;;;15.83;7.40;;;;;;;;;;5048176;28;20243;-70
2024/01/30 07:38:31;;;;;;;11.83;7.20;;;;;;;;;;5041978;28;20178;-68
2024/01/30 07:40:56;;;;;;;12.33;6.93;;;;;;;;;;5045175;28;20176;-70
2024/01/30 07:43:22;;;;;;;12.60;7.43;;;;;;;;;;5040781;28;20188;-70
2024/01/30 07:45:47;;;;;;;12.37;6.57;;;;;;;;;;5042358;28;20190;-71
2024/01/30 07:48:13;;;;;;;15.40;7.53;;;;;;;;;;5050641;28;20219;-71
2024/01/30 07:50:39;;;;;;;11.50;7.00;;;;;;;;;;5028664;28;20193;-70
2024/01/30 07:53:04;;;;;;;15.90;7.90;;;;;;;;;;5043041;28;20280;-70
2024/01/30 07:55:31;;;;;;;10.03;7.03;;;;;;;;;;5049768;28;20696;-69
2024/01/30 07:57:56;;;;;;;10.20;6.70;;;;;;;;;;5050574;28;20176;-71
2024/01/30 08:00:22;;;;;;;10.03;7.27;;;;;;;;;;5025528;28;20177;-70
2024/01/30 08:02:55;;;;;;;12.27;7.07;;;;;;;;;;5035575;28;20224;-70
2024/01/30 08:05:22;;;;;;;11.17;7.17;;;;;;;;;;5050519;28;20207;-70
2024/01/30 08:07:47;;;;;;;11.50;7.23;;;;;;;;;;5075515;22;20225;-67
2024/01/30 08:10:15;;;;;;;15.93;8.57;;;;;;;;;;5054538;28;20178;-69
2024/01/30 08:12:40;;;;;;;12.60;7.63;;;;;;;;;;5055736;28;20209;-68
2024/01/30 08:15:06;;;;;;;14.43;7.00;;;;;;;;;;5058267;28;20275;-68
2024/01/30 08:17:31;;;;;;;13.40;7.40;;;;;;;;;;5056370;28;20237;-67
2024/01/30 08:19:56;;;;;;;12.97;7.10;;;;;;;;;;5045411;28;20180;-69
2024/01/30 08:22:21;;;;;;;12.60;7.40;;;;;;;;;;5049486;28;20177;-68
2024/01/30 08:24:47;;;;;;;11.73;6.90;;;;;;;;;;5060005;28;20180;-69
2024/01/30 08:27:12;;;;;;;13.10;7.60;;;;;;;;;;5057995;28;20566;-67
2024/01/30 08:29:37;;;;;;;13.80;7.13;;;;;;;;;;5054856;28;20182;-68
2024/01/30 08:32:03;;;;;;;14.47;8.03;;;;;;;;;;5051846;28;20196;-68
2024/01/30 08:34:29;;;;;;;15.57;7.63;;;;;;;;;;5047632;28;20184;-68
2024/01/30 08:36:54;;;;;;;12.20;6.60;;;;;;;;;;5053096;28;20193;-69
2024/01/30 08:39:19;;;;;;;11.10;6.55;;;;;;;;;;5055311;28;20708;-69
2024/01/30 08:41:45;;;;;;;16.70;7.10;;;;;;;;;;5034807;28;20598;-68
2024/01/30 08:44:11;;;;;;;13.63;8.20;;;;;;;;;;5053254;28;20166;-69
2024/01/30 08:46:36;;;;;;;16.20;7.57;;;;;;;;;;5058450;28;20189;-69
2024/01/30 08:49:01;;;;;;;14.27;6.82;;;;;;;;;;5063752;28;20668;-68
2024/01/30 08:51:26;;;;;;;11.52;6.60;;;;;;;;;;5052769;28;20184;-69
2024/01/30 08:53:53;;;;;;;12.52;7.18;;;;;;;;;;5053649;28;20202;-68
2024/01/30 08:56:18;;;;;;;12.18;7.20;;;;;;;;;;5029277;28;20175;-69
2024/01/30 08:58:44;;;;;;;13.63;7.20;;;;;;;;;;5042021;28;20207;-69
2024/01/30 09:01:09;;;;;;;9.20;6.85;;;;;;;;;;5055147;28;20180;-69
2024/01/30 09:03:34;;;;;;;13.98;7.32;;;;;;;;;;5057189;28;20559;-68
2024/01/30 09:05:59;;;;;;;10.32;6.97;;;;;;;;;;5062211;28;20188;-68
2024/01/30 09:08:24;;;;;;;17.20;7.43;;;;;;;;;;5059102;28;20219;-68
2024/01/30 09:10:50;;;;;;;12.43;6.93;;;;;;;;;;5057588;28;20184;-69
2024/01/30 09:13:15;;;;;;;16.05;7.50;;;;;;;;;;5051341;28;20566;-66
2024/01/30 09:15:41;;;;;;;11.98;7.10;;;;;;;;;;5058031;28;20621;-69
2024/01/30 09:18:06;;;;;;;12.30;7.07;;;;;;;;;;5058108;28;20379;-70
2024/01/30 09:20:31;;;;;;;11.82;6.93;;;;;;;;;;5054142;28;20211;-69
2024/01/30 09:22:57;;;;;;;12.45;7.18;;;;;;;;;;5057886;28;20205;-69
2024/01/30 09:25:22;;;;;;;9.82;6.60;;;;;;;;;;5062674;28;20195;-69
2024/01/30 09:27:47;;;;;;;10.93;6.65;;;;;;;;;;5060431;28;20287;-68
2024/01/30 09:30:12;;;;;;;12.65;7.22;;;;;;;;;;5047192;28;20234;-68
2024/01/30 09:32:39;;;;;;;11.98;7.13;;;;;;;;;;5034952;28;20295;-68
2024/01/30 09:35:04;;;;;;;13.75;7.05;;;;;;;;;;5060702;28;20177;-68
2024/01/30 09:37:29;;;;;;;16.77;7.03;;;;;;;;;;5041717;28;20720;-68
2024/01/30 09:39:55;;;;;;;10.52;7.38;;;;;;;;;;5051916;28;20303;-68
2024/01/30 09:42:36;;;;;;;10.98;6.57;;;;;;;;;;5050249;28;20170;-67
2024/01/30 09:45:02;;;;;;;12.13;7.40;;;;;;;;;;5060469;28;20210;-68
2024/01/30 09:47:28;;;;;;;14.60;7.05;;;;;;;;;;5055028;28;20220;-68
2024/01/30 09:49:53;;;;;;;10.98;6.75;;;;;;;;;;5033750;28;20653;-68
2024/01/30 09:52:19;;;;;;;12.95;7.00;;;;;;;;;;5033091;28;20205;-69
2024/01/30 09:54:45;;;;;;;14.48;7.38;;;;;;;;;;5052251;28;20178;-68
2024/01/30 09:57:11;;;;;;;12.77;7.78;;;;;;;;;;5055819;28;20198;-68
2024/01/30 09:59:36;;;;;;;12.68;6.38;;;;;;;;;;5054340;28;20178;-68
2024/01/30 10:02:04;;;;;;;14.77;6.65;;;;;;;;;;5052356;28;20185;-67
2024/01/30 10:04:29;;;;;;;14.02;6.80;;;;;;;;;;5052770;28;20197;-68
2024/01/30 10:06:54;;;;;;;13.55;7.93;;;;;;;;;;5061573;28;20639;-67
2024/01/30 10:09:19;;;;;;;12.32;7.18;;;;;;;;;;5055346;28;20640;-68
2024/01/30 10:11:44;;;;;;;14.75;6.60;;;;;;;;;;5052555;28;20189;-67
2024/01/30 10:14:09;;;;;;;9.98;6.47;;;;;;;;;;5047138;28;20275;-67
2024/01/30 10:16:35;;;;;;;11.52;6.82;;;;;;;;;;5050432;28;20174;-67
2024/01/30 10:19:00;;;;;;;11.05;6.47;;;;;;;;;;5058490;28;20223;-67
2024/01/30 10:21:25;;;;;;;12.13;6.97;;;;;;;;;;5052440;28;20177;-68
2024/01/30 10:23:50;;;;;;;9.02;6.32;;;;;;;;;;5031376;28;20185;-67
2024/01/30 10:26:17;;;;;;;14.93;6.32;;;;;;;;;;5054345;28;20261;-68
2024/01/30 10:28:42;;;;;;;11.35;6.45;;;;;;;;;;5057438;28;20248;-68
2024/01/30 10:31:07;;;;;;;12.57;5.85;;;;;;;;;;5053569;28;20185;-68
2024/01/30 10:33:33;;;;;;;12.43;6.60;;;;;;;;;;5051516;28;20240;-66
2024/01/30 10:36:01;;;;;;;10.48;6.43;;;;;;;;;;5053248;28;20304;-68
2024/01/30 10:38:28;;;;;;;11.48;6.20;;;;;;;;;;5059399;28;20193;-68
2024/01/30 10:40:56;;;;;;;11.88;6.00;;;;;;;;;;5053203;28;20180;-68
2024/01/30 10:43:21;;;;;;;9.88;5.97;;;;;;;;;;5054547;28;20186;-67
2024/01/30 10:45:49;;;;;;;10.93;6.45;;;;;;;;;;5058618;28;20192;-68
2024/01/30 10:48:15;;;;;;;13.48;6.75;;;;;;;;;;5060031;28;20646;-67
2024/01/30 10:50:40;;;;;;;11.25;6.20;;;;;;;;;;5045724;28;20252;-67
2024/01/30 10:53:06;;;;;;;12.30;6.80;;;;;;;;;;5047267;28;20252;-68
2024/01/30 10:55:31;;;;;;;12.80;5.78;;;;;;;;;;5050106;28;20181;-67
2024/01/30 10:57:56;;;;;;;8.43;5.65;;;;;;;;;;5058538;28;20224;-67
2024/01/30 11:00:24;;;;;;;9.65;6.00;;;;;;;;;;5054437;28;20658;-68
2024/01/30 11:02:49;;;;;;;8.38;4.28;;;;;;;;;;5053962;28;20264;-67
2024/01/30 11:05:23;;;;;;;8.98;3.90;;;;;;;;;;5058042;28;20268;-68
2024/01/30 11:07:48;;;;;;;5.03;2.38;;;;;;;;;;5060271;28;20224;-68
2024/01/30 11:10:15;;;;;;;6.85;2.63;;;;;;;;;;5043556;28;20248;-68
2024/01/30 11:12:46;;;;;;;6.68;3.10;;;;;;;;;;5048766;28;20579;-69
2024/01/30 11:15:15;;;;;;;7.53;3.15;;;;;;;;;;5043125;28;20181;-67
2024/01/30 11:17:41;;;;;;;4.85;1.90;;;;;;;;;;5050555;28;20233;-68
2024/01/30 11:20:09;;;;;;;7.68;1.90;;;;;;;;;;5053596;28;20183;-68
2024/01/30 11:22:35;;;;;;;4.40;1.55;;;;;;;;;;5052211;28;20272;-68
2024/01/30 11:25:03;;;;;;;4.85;1.88;;;;;;;;;;5057938;28;20255;-68
2024/01/30 11:27:28;;;;;;;3.17;1.40;;;;;;;;;;5053477;28;20617;-68
2024/01/30 11:29:53;;;;;;;3.63;1.42;;;;;;;;;;5053041;28;20208;-68
2024/01/30 11:32:23;;;;;;;4.25;1.35;;;;;;;;;;5042753;28;20669;-67
2024/01/30 11:34:49;;;;;;;5.43;1.65;;;;;;;;;;5049451;28;20192;-67
2024/01/30 11:37:15;;;;;;;3.45;1.23;;;;;;;;;;5039450;28;20204;-68
2024/01/30 11:39:41;;;;;;;7.03;1.20;;;;;;;;;;5056442;28;20181;-68
2024/01/30 11:42:07;;;;;;;4.63;1.67;;;;;;;;;;5054159;28;20173;-68
2024/01/30 11:44:33;;;;;;;2.03;1.40;;;;;;;;;;5055488;28;20193;-68
2024/01/30 11:46:59;;;;;;;6.47;1.75;;;;;;;;;;5056114;28;20209;-67
2024/01/30 11:49:24;;;;;;;4.78;1.58;;;;;;;;;;5046030;28;20217;-67
2024/01/30 11:51:49;;;;;;;3.08;1.52;;;;;;;;;;5032508;28;20219;-68
2024/01/30 11:54:17;;;;;;;5.10;2.00;;;;;;;;;;5048817;28;20224;-67
2024/01/30 11:56:45;;;;;;;4.68;2.40;;;;;;;;;;5056554;28;20201;-67
2024/01/30 11:59:11;;;;;;;9.25;3.50;;;;;;;;;;5054853;28;20178;-68
2024/01/30 12:01:36;;;;;;;4.30;2.65;;;;;;;;;;5052512;28;20174;-68
2024/01/30 12:04:01;;;;;;;5.87;2.30;;;;;;;;;;5053048;28;20264;-68
2024/01/30 12:06:27;;;;;;;7.17;2.90;;;;;;;;;;5050708;28;20659;-68
2024/01/30 12:08:59;;;;;;;9.33;2.10;;;;;;;;;;5047253;28;20184;-68
2024/01/30 12:11:25;;;;;;;3.33;1.80;;;;;;;;;;5043802;28;20579;-68
2024/01/30 12:13:51;;;;;;;2.97;1.90;;;;;;;;;;5051720;28;20210;-68
2024/01/30 12:16:17;;;;;;;7.90;2.40;;;;;;;;;;5052562;28;20181;-68
2024/01/30 12:18:42;;;;;;;3.63;1.80;;;;;;;;;;5052198;28;20216;-68
2024/01/30 12:21:08;;;;;;;6.93;1.93;;;;;;;;;;5051728;28;20173;-69
2024/01/30 12:23:34;;;;;;;4.77;1.53;;;;;;;;;;5044373;28;20212;-68
2024/01/30 12:26:01;;;;;;;1.93;1.70;;;;;;;;;;5049388;28;20184;-67
2024/01/30 12:28:26;;;;;;;6.37;1.43;;;;;;;;;;5031692;28;20228;-68
2024/01/30 12:30:55;;;;;;;5.83;1.57;;;;;;;;;;5050589;28;20205;-67
2024/01/30 12:33:20;;;;;;;4.60;1.93;;;;;;;;;;5049065;28;20212;-68
2024/01/30 12:35:47;;;;;;;4.83;2.00;;;;;;;;;;5050439;28;20566;-68
2024/01/30 12:38:13;;;;;;;4.60;1.70;;;;;;;;;;5054047;28;20190;-68
2024/01/30 12:40:38;;;;;;;3.87;1.23;;;;;;;;;;5032280;28;20230;-68
2024/01/30 12:43:04;;;;;;;5.57;1.60;;;;;;;;;;5023641;28;20213;-68
2024/01/30 12:45:29;;;;;;;2.50;1.40;;;;;;;;;;5050283;28;20178;-68
2024/01/30 12:47:55;;;;;;;5.03;1.37;;;;;;;;;;5053902;28;20327;-69
2024/01/30 12:50:20;;;;;;;2.47;0.90;;;;;;;;;;5033617;28;20196;-68
2024/01/30 12:52:45;;;;;;;3.27;0.87;;;;;;;;;;5049159;28;20735;-68
2024/01/30 12:55:11;;;;;;;3.00;0.67;;;;;;;;;;5026662;28;20173;-68
2024/01/30 12:57:36;;;;;;;2.10;0.50;;;;;;;;;;5050809;28;20193;-68
2024/01/30 13:00:01;;;;;;;2.60;0.73;;;;;;;;;;5041707;28;20213;-68
2024/01/30 13:02:34;;;;;;;3.80;0.83;;;;;;;;;;5049097;28;20633;-68
2024/01/30 13:04:59;;;;;;;0.87;0.40;;;;;;;;;;5053542;28;20255;-67
2024/01/30 13:07:24;;;;;;;1.60;0.40;;;;;;;;;;5051305;28;20300;-68
2024/01/30 13:09:50;;;;;;;1.47;0.70;;;;;;;;;;5049907;28;20189;-68
2024/01/30 13:12:15;;;;;;;1.43;1.03;;;;;;;;;;5052132;28;20679;-69
2024/01/30 13:14:40;;;;;;;2.17;0.70;;;;;;;;;;5046061;28;20181;-69
2024/01/30 13:17:05;;;;;;;2.80;1.03;;;;;;;;;;5040211;28;20260;-68
2024/01/30 13:19:30;;;;;;;2.97;0.80;;;;;;;;;;5052901;28;20177;-68
2024/01/30 13:21:56;;;;;;;3.20;0.97;;;;;;;;;;5055184;28;20185;-68
2024/01/30 13:24:21;;;;;;;1.17;0.53;;;;;;;;;;5057579;28;20170;-68
2024/01/30 13:26:46;;;;;;;3.67;0.90;;;;;;;;;;5053685;28;20197;-68
2024/01/30 13:29:11;;;;;;;1.83;0.70;;;;;;;;;;5051722;28;20170;-68
2024/01/30 13:31:37;;;;;;;4.07;1.50;;;;;;;;;;5053881;28;20174;-68
2024/01/30 13:34:02;;;;;;;1.63;0.70;;;;;;;;;;5035262;28;20213;-68
2024/01/30 13:36:27;;;;;;;3.47;1.37;;;;;;;;;;5052009;28;20173;-68
2024/01/30 13:38:52;;;;;;;1.67;0.70;;;;;;;;;;5035070;28;20272;-68
2024/01/30 13:41:18;;;;;;;3.23;0.60;;;;;;;;;;5036238;28;20276;-69
2024/01/30 13:43:43;;;;;;;1.40;1.03;;;;;;;;;;5036820;28;20227;-69
2024/01/30 13:46:08;;;;;;;4.60;0.80;;;;;;;;;;5053647;28;20188;-69
2024/01/30 13:48:34;;;;;;;4.03;0.70;;;;;;;;;;5051426;28;20197;-67
2024/01/30 13:50:59;;;;;;;6.07;1.07;;;;;;;;;;5042412;28;20174;-69
2024/01/30 13:53:24;;;;;;;4.67;0.93;;;;;;;;;;5053146;28;20762;-68
2024/01/30 13:55:49;;;;;;;7.57;1.23;;;;;;;;;;5055040;28;20197;-67
2024/01/30 13:58:15;;;;;;;2.00;0.97;;;;;;;;;;5056913;28;20232;-68
2024/01/30 14:00:40;;;;;;;9.27;1.60;;;;;;;;;;5052916;28;20182;-67
2024/01/30 14:03:05;;;;;;;2.73;0.90;;;;;;;;;;5036481;28;20213;-68
2024/01/30 14:05:30;;;;;;;4.10;0.90;;;;;;;;;;5053097;28;20192;-69
2024/01/30 14:07:57;;;;;;;5.27;1.37;;;;;;;;;;5051885;28;20230;-67
2024/01/30 14:10:22;;;;;;;2.73;1.10;;;;;;;;;;5042450;28;20700;-69
2024/01/30 14:12:47;;;;;;;5.10;1.03;;;;;;;;;;5049332;28;20297;-70
2024/01/30 14:15:14;;;;;;;6.73;1.57;;;;;;;;;;5043348;28;20223;-67
2024/01/30 14:17:39;;;;;;;6.90;1.60;;;;;;;;;;5044632;28;20210;-70
2024/01/30 14:20:05;;;;;;;2.97;1.23;;;;;;;;;;5051043;28;20185;-69